Buckland Airport Buckland US
ICAO: PABL
IATA:
Category: Medium
Scheduled Services:

Elevation: 31 ft
TransAlt. 18000 ft.

Airport Communications:
AWOS 3:135.15
ANCHORAGE APP/DEP:119.2
CTAF:122.9
KOTZEBUE RDO:122.3

PABL Zoom In..

If you have problems with the map follow the link
https://www.worldairports.se/pages/airport.php?
ICAO=PABL

Runways:

(A) RW 11 length 3200 ft width 75 ft
---- / hdg 107

(B) RW 29 length 3200 ft width 75 ft
---- / hdg 287

Location; PABL
Day. 16 / Time. 02.56 Zulu
* Altimeter: 30.22
* Temperature: -15° c. -5°f.
* Wind from: 190° Speed 06 kn.
Dewpoint: -17° c.
Visibility: 10 Statute Miles.
Clouds: Clear (automated report).

PABL 160256Z AUTO 19006KT 10SM CLR M15/M17 A3022 RMK AO2 SLP237 T11501172 58012 FZRANO


Wind From 190°
Speed 06 kn.

 
 
jpsmedia.com for Web Design worldairports.se 2018   terms of use